Time;durP1;ratioP1;P1;durP2;ratioP2;P2;SDS_P1;SDS_P2;PMS_P1;PMS_P2;Temp;Humidity;BMP_temperature;BMP_pressure;BME280_temperature;BME280_humidity;BME280_pressure;Samples;Min_cycle;Max_cycle;Signal;HPM_P1;HPM_P2
2023/12/15 00:02:21;;;;;;;26.40;4.53;;;;;;;-6.76;93.22;101109.19;10445244;28;20110;-60
2023/12/15 00:07:24;;;;;;;24.98;4.65;;;;;;;-6.73;93.03;101105.38;10446577;28;20045;-60
2023/12/15 00:12:26;;;;;;;23.23;4.57;;;;;;;-6.85;92.62;101093.28;10446528;28;20042;-60
2023/12/15 00:17:28;;;;;;;15.07;3.53;;;;;;;-6.74;92.32;101101.03;10417942;28;20042;-60
2023/12/15 00:22:31;;;;;;;23.27;4.13;;;;;;;-6.70;92.72;101094.38;10443761;28;20041;-60
2023/12/15 00:27:33;;;;;;;19.38;4.03;;;;;;;-6.66;92.27;101106.41;10443401;28;20409;-60
2023/12/15 00:32:36;;;;;;;18.70;4.07;;;;;;;-6.58;92.08;101095.78;10441235;28;20045;-60
2023/12/15 00:37:38;;;;;;;15.82;3.88;;;;;;;-6.73;91.66;101084.84;10442748;28;20041;-60
2023/12/15 00:42:41;;;;;;;20.85;4.18;;;;;;;-6.84;91.48;101092.28;10441021;28;20037;-60
2023/12/15 00:47:43;;;;;;;22.30;3.97;;;;;;;-6.91;91.96;101077.91;10429974;28;20033;-61
2023/12/15 00:52:46;;;;;;;23.77;4.43;;;;;;;-6.94;91.75;101088.88;10428995;28;20037;-60
2023/12/15 00:57:48;;;;;;;21.60;3.35;;;;;;;-6.93;91.69;101093.22;10441467;28;20038;-60
2023/12/15 01:02:50;;;;;;;18.45;4.03;;;;;;;-6.91;91.80;101085.91;10438527;28;20041;-61
2023/12/15 01:07:53;;;;;;;9.25;3.10;;;;;;;-6.86;92.15;101072.94;10439897;28;20044;-61
2023/12/15 01:12:56;;;;;;;19.90;4.38;;;;;;;-6.92;91.69;101076.22;10432350;28;20572;-60
2023/12/15 01:17:58;;;;;;;19.55;4.22;;;;;;;-6.96;91.79;101085.53;10440097;28;20397;-61
2023/12/15 01:23:02;;;;;;;20.77;4.40;;;;;;;-6.89;92.05;101063.41;10438035;28;20397;-60
2023/12/15 01:28:04;;;;;;;19.77;3.92;;;;;;;-6.88;92.10;101074.91;10432801;28;20441;-61
2023/12/15 01:33:06;;;;;;;15.98;3.78;;;;;;;-6.82;92.04;101087.63;10444022;28;20037;-61
2023/12/15 01:38:09;;;;;;;20.92;3.80;;;;;;;-6.93;92.12;101085.22;10443740;28;20037;-60
2023/12/15 01:43:11;;;;;;;22.30;3.33;;;;;;;-7.09;92.07;101070.78;10439890;28;20041;-61
2023/12/15 01:48:14;;;;;;;19.55;4.00;;;;;;;-7.03;92.27;101071.97;10442937;28;20045;-61
2023/12/15 01:53:17;;;;;;;15.00;3.50;;;;;;;-7.04;91.82;101055.16;10440350;28;20048;-62
2023/12/15 01:58:20;;;;;;;12.85;2.97;;;;;;;-7.02;91.96;101060.31;10436692;28;20045;-61
2023/12/15 02:03:22;;;;;;;16.90;3.25;;;;;;;-7.08;91.62;101058.28;10433063;28;20061;-60
2023/12/15 02:08:25;;;;;;;17.50;3.42;;;;;;;-7.00;91.72;101051.16;10441785;28;20050;-60
2023/12/15 02:13:27;;;;;;;22.98;4.18;;;;;;;-6.87;91.90;101053.41;10437421;28;20037;-61
2023/12/15 02:18:30;;;;;;;14.10;3.30;;;;;;;-6.81;91.14;101050.09;10440725;28;20048;-60
2023/12/15 02:23:32;;;;;;;15.55;3.35;;;;;;;-6.82;90.67;101043.09;10442619;28;20056;-61
2023/12/15 02:28:34;;;;;;;16.20;3.88;;;;;;;-6.99;89.70;101044.84;10440221;28;20046;-61
2023/12/15 02:33:37;;;;;;;15.23;3.30;;;;;;;-7.03;89.75;101045.31;10441729;28;20044;-61
2023/12/15 02:38:39;;;;;;;13.15;3.60;;;;;;;-7.13;89.96;101053.41;10446381;28;20060;-60
2023/12/15 02:43:42;;;;;;;19.55;3.58;;;;;;;-7.13;89.56;101039.22;10439531;28;20508;-61
2023/12/15 02:48:44;;;;;;;12.52;3.47;;;;;;;-7.04;89.39;101041.81;10440209;28;20448;-61
2023/12/15 02:53:47;;;;;;;18.85;4.30;;;;;;;-7.06;89.46;101041.13;10423707;28;20037;-61
2023/12/15 02:58:49;;;;;;;25.15;6.03;;;;;;;-7.14;89.94;101038.41;10435771;28;20044;-61
2023/12/15 03:03:52;;;;;;;25.42;4.63;;;;;;;-7.09;89.76;101046.78;10441193;28;20048;-61
2023/12/15 03:08:54;;;;;;;21.67;4.20;;;;;;;-7.14;90.36;101040.22;10440178;28;20045;-60
2023/12/15 03:13:57;;;;;;;24.48;4.90;;;;;;;-7.16;90.23;101043.06;10435960;28;20452;-59
2023/12/15 03:18:59;;;;;;;16.42;4.22;;;;;;;-7.09;89.99;101051.28;10448182;28;20044;-59
2023/12/15 03:24:01;;;;;;;21.65;4.28;;;;;;;-7.21;89.11;101042.69;10480327;28;20048;-60
2023/12/15 03:29:04;;;;;;;15.65;3.83;;;;;;;-7.30;88.81;101047.13;10446924;28;20041;-59
2023/12/15 03:34:06;;;;;;;19.20;3.63;;;;;;;-7.39;88.71;101044.56;10446738;28;20037;-60
2023/12/15 03:39:09;;;;;;;25.05;4.75;;;;;;;-7.32;88.99;101030.44;10447339;28;20037;-60
2023/12/15 03:44:12;;;;;;;25.27;4.30;;;;;;;-7.22;88.91;101040.19;10446251;28;20432;-60
2023/12/15 03:49:14;;;;;;;17.73;3.60;;;;;;;-7.18;88.43;101042.38;10442460;28;20524;-60
2023/12/15 03:54:16;;;;;;;22.90;4.20;;;;;;;-7.12;87.79;101039.06;10446084;28;20559;-60
2023/12/15 03:59:19;;;;;;;12.88;2.67;;;;;;;-7.14;88.61;101030.41;10434953;28;20440;-60
2023/12/15 04:04:22;;;;;;;6.38;2.33;;;;;;;-7.18;88.46;101021.03;10442391;28;20099;-61
2023/12/15 04:09:25;;;;;;;18.58;2.88;;;;;;;-7.30;89.64;101027.63;10433768;28;20533;-60
2023/12/15 04:14:27;;;;;;;15.38;3.35;;;;;;;-7.33;89.59;101041.25;10437760;28;20037;-60
2023/12/15 04:19:30;;;;;;;16.48;3.50;;;;;;;-7.31;90.22;101033.94;10445222;28;20052;-61
2023/12/15 04:24:33;;;;;;;13.30;3.22;;;;;;;-7.17;90.41;101013.88;10441863;28;20056;-61
2023/12/15 04:29:36;;;;;;;14.35;3.45;;;;;;;-7.13;90.17;101028.56;10427698;28;20038;-59
2023/12/15 04:34:39;;;;;;;8.90;2.50;;;;;;;-7.23;90.38;101028.69;10441358;28;20509;-60
2023/12/15 04:39:43;;;;;;;14.65;3.50;;;;;;;-7.21;89.59;101029.38;10444926;28;20532;-61
2023/12/15 04:44:47;;;;;;;19.30;3.25;;;;;;;-7.18;90.13;101014.88;10443177;28;20521;-61
2023/12/15 04:49:49;;;;;;;8.32;2.10;;;;;;;-7.15;89.41;101017.22;10448434;28;20525;-61
2023/12/15 04:54:52;;;;;;;6.57;1.95;;;;;;;-7.17;89.50;101025.38;10448663;28;20033;-61
2023/12/15 04:59:54;;;;;;;8.13;2.38;;;;;;;-7.19;89.38;101031.88;10443754;28;20425;-61
2023/12/15 05:04:57;;;;;;;12.63;3.17;;;;;;;-7.21;89.89;101010.69;10444747;28;20041;-60
2023/12/15 05:09:59;;;;;;;6.90;1.83;;;;;;;-7.23;89.49;101010.03;10443153;28;20076;-61
2023/12/15 05:15:03;;;;;;;8.15;2.15;;;;;;;-7.26;89.83;101018.34;10444943;28;20049;-61
2023/12/15 05:20:07;;;;;;;6.13;3.13;;;;;;;-7.25;89.93;101012.00;10443857;28;20484;-60
2023/12/15 05:25:10;;;;;;;1.40;1.00;;;;;;;-7.38;89.74;101022.25;10442886;28;20050;-60
2023/12/15 05:30:13;;;;;;;10.05;2.75;;;;;;;-7.39;90.43;101017.91;10427030;28;20041;-60
2023/12/15 05:35:16;;;;;;;15.82;3.00;;;;;;;-7.44;90.02;101029.03;10416564;28;20038;-60
2023/12/15 05:40:19;;;;;;;12.13;3.13;;;;;;;-7.41;90.40;101014.56;10402464;28;20037;-60
2023/12/15 05:45:22;;;;;;;8.02;2.63;;;;;;;-7.42;90.90;101013.72;10433708;28;20056;-60
2023/12/15 05:50:25;;;;;;;4.45;1.77;;;;;;;-7.38;90.54;101000.91;10441549;28;20041;-60
2023/12/15 05:55:27;;;;;;;11.38;2.92;;;;;;;-7.41;90.74;101010.06;10441380;28;20048;-60
2023/12/15 06:00:30;;;;;;;7.03;2.70;;;;;;;-7.40;90.48;101013.56;10443127;28;20046;-61
2023/12/15 06:05:36;;;;;;;8.88;3.00;;;;;;;-7.35;90.19;101025.44;10436884;28;20056;-60
2023/12/15 06:10:39;;;;;;;7.93;2.53;;;;;;;-7.33;90.26;101022.59;10437219;28;20045;-60
2023/12/15 06:15:42;;;;;;;9.40;2.70;;;;;;;-7.31;90.36;101028.63;10438626;28;20390;-60
2023/12/15 06:20:44;;;;;;;7.50;2.83;;;;;;;-7.33;90.30;101031.44;10441048;28;20029;-60
2023/12/15 06:25:47;;;;;;;8.98;2.70;;;;;;;-7.36;89.75;101033.59;10439928;28;20540;-60
2023/12/15 06:30:49;;;;;;;6.10;1.38;;;;;;;-7.30;90.17;101022.28;10441317;28;20060;-60
2023/12/15 06:35:51;;;;;;;4.63;2.40;;;;;;;-7.23;90.13;101018.03;10442795;28;20626;-60
2023/12/15 06:40:54;;;;;;;4.32;1.83;;;;;;;-7.29;89.38;101026.63;10442192;28;20041;-60
2023/12/15 06:45:57;;;;;;;14.05;3.10;;;;;;;-7.30;89.19;101027.63;10441661;28;20421;-60
2023/12/15 06:50:59;;;;;;;15.52;4.15;;;;;;;-7.25;89.79;101027.19;10440408;28;20080;-60
2023/12/15 06:56:01;;;;;;;10.25;2.80;;;;;;;-7.36;89.36;101044.25;10442444;28;20045;-60
2023/12/15 07:01:04;;;;;;;7.40;3.72;;;;;;;-7.46;89.71;101035.50;10439287;28;20046;-59
2023/12/15 07:06:07;;;;;;;2.58;2.00;;;;;;;-7.44;90.42;101028.22;10439390;28;20545;-61
2023/12/15 07:11:09;;;;;;;4.60;2.05;;;;;;;-7.31;90.61;101036.63;10440061;28;20041;-61
2023/12/15 07:16:12;;;;;;;5.75;2.30;;;;;;;-7.38;89.99;101032.91;10436984;28;20038;-62
2023/12/15 07:21:14;;;;;;;3.05;1.42;;;;;;;-7.43;90.73;101032.53;10438741;28;20045;-61
2023/12/15 07:26:17;;;;;;;7.70;2.15;;;;;;;-7.36;90.68;101034.41;10439141;28;20041;-61
2023/12/15 07:31:19;;;;;;;20.85;3.92;;;;;;;-7.31;90.50;101025.94;10437764;28;20068;-61
2023/12/15 07:36:22;;;;;;;8.75;2.00;;;;;;;-7.40;91.26;101026.91;10434550;28;20037;-61
2023/12/15 07:41:24;;;;;;;7.82;3.00;;;;;;;-7.38;90.40;101033.75;10439422;28;20037;-61
2023/12/15 07:46:26;;;;;;;5.10;1.73;;;;;;;-7.32;91.25;101035.78;10436907;28;20057;-61
2023/12/15 07:51:29;;;;;;;9.18;3.10;;;;;;;-7.22;90.62;101041.03;10440063;28;20406;-61
2023/12/15 07:56:31;;;;;;;9.52;3.72;;;;;;;-7.26;91.03;101017.50;10436338;28;20037;-61
2023/12/15 08:01:34;;;;;;;12.98;3.00;;;;;;;-7.23;90.79;101031.34;10444031;28;20052;-61
2023/12/15 08:06:37;;;;;;;12.00;4.72;;;;;;;-7.23;91.04;101036.69;10445986;28;20060;-61
2023/12/15 08:11:40;;;;;;;10.80;2.95;;;;;;;-7.12;90.70;101028.41;10437582;28;20056;-61
2023/12/15 08:16:42;;;;;;;16.30;4.35;;;;;;;-7.04;90.31;101035.63;10444525;28;20045;-60
2023/12/15 08:21:47;;;;;;;1.90;1.42;;;;;;;-7.18;90.32;101036.22;10440038;28;20038;-59
2023/12/15 08:26:50;;;;;;;12.85;3.75;;;;;;;-7.16;90.64;101035.06;10444795;28;20413;-61
2023/12/15 08:31:52;;;;;;;4.70;2.38;;;;;;;-7.07;89.79;101039.47;10447101;28;20037;-61
2023/12/15 08:36:54;;;;;;;4.60;3.05;;;;;;;-6.95;89.65;101036.50;10445247;28;20033;-61
2023/12/15 08:41:57;;;;;;;10.18;3.00;;;;;;;-6.87;89.51;101034.75;10445593;28;20501;-61
2023/12/15 08:46:59;;;;;;;9.07;3.40;;;;;;;-6.92;89.17;101036.22;10444972;28;20049;-61
2023/12/15 08:52:02;;;;;;;6.55;4.07;;;;;;;-6.93;89.02;101034.56;10443709;28;20045;-61
2023/12/15 08:57:04;;;;;;;13.10;4.32;;;;;;;-7.02;89.18;101028.31;10445419;28;20428;-61
2023/12/15 09:02:07;;;;;;;14.23;3.70;;;;;;;-7.05;89.18;101024.13;10441554;28;20484;-61
2023/12/15 09:07:09;;;;;;;5.57;2.63;;;;;;;-7.02;89.26;101030.97;10441832;28;20038;-61
2023/12/15 09:12:12;;;;;;;9.65;3.60;;;;;;;-6.93;89.54;101032.72;10443336;28;20045;-61
2023/12/15 09:17:14;;;;;;;6.20;2.40;;;;;;;-6.86;88.68;101023.06;10442540;28;20044;-61
2023/12/15 09:22:17;;;;;;;10.85;3.42;;;;;;;-7.02;88.46;101025.66;10423056;28;20056;-61
2023/12/15 09:27:19;;;;;;;4.65;2.25;;;;;;;-6.90;88.79;101029.72;10439390;28;20425;-61
2023/12/15 09:32:22;;;;;;;10.60;2.67;;;;;;;-6.85;89.03;101021.25;10439107;28;20041;-61
2023/12/15 09:37:24;;;;;;;5.43;2.90;;;;;;;-6.79;88.78;101037.44;10438668;28;20033;-61
2023/12/15 09:42:27;;;;;;;10.82;2.97;;;;;;;-6.81;88.62;101028.75;10437555;28;20033;-61
2023/12/15 09:47:29;;;;;;;6.82;3.38;;;;;;;-6.79;88.39;101037.44;10440813;28;20053;-61
2023/12/15 09:52:36;;;;;;;9.25;2.58;;;;;;;-6.70;88.32;101035.66;10437849;28;20049;-61
2023/12/15 09:57:39;;;;;;;7.45;2.97;;;;;;;-6.74;88.43;101034.31;10436383;28;20033;-61
2023/12/15 10:02:42;;;;;;;13.48;3.85;;;;;;;-6.73;89.08;101025.31;10438372;28;20045;-61
2023/12/15 10:07:45;;;;;;;12.88;3.47;;;;;;;-6.78;88.99;101022.25;10428908;28;20046;-62
2023/12/15 10:12:47;;;;;;;13.02;3.85;;;;;;;-6.68;88.82;101020.31;10434808;28;20041;-60
2023/12/15 10:17:49;;;;;;;2.60;1.45;;;;;;;-6.61;89.61;101029.34;10437459;28;20038;-61
2023/12/15 10:23:03;;;;;;;8.45;3.28;;;;;;;-6.59;89.53;101027.38;10437052;28;20048;-62
2023/12/15 10:28:06;;;;;;;5.75;2.97;;;;;;;-6.55;89.14;101023.41;10441377;28;20041;-61
2023/12/15 10:33:08;;;;;;;7.53;4.05;;;;;;;-6.40;89.38;101024.47;10442693;28;20049;-61
2023/12/15 10:38:12;;;;;;;8.98;3.22;;;;;;;-6.14;88.67;101018.19;10426336;28;20029;-61
2023/12/15 10:43:14;;;;;;;6.53;3.03;;;;;;;-6.16;88.20;101014.84;10434235;28;20416;-61
2023/12/15 10:48:18;;;;;;;5.20;2.60;;;;;;;-6.14;88.10;101012.84;10433976;28;20037;-62
2023/12/15 10:53:21;;;;;;;12.48;3.88;;;;;;;-6.28;88.24;101000.94;10436477;28;20397;-60
2023/12/15 10:58:23;;;;;;;12.52;3.67;;;;;;;-6.23;88.54;101011.16;10431353;28;20048;-61
2023/12/15 11:03:26;;;;;;;16.30;3.90;;;;;;;-6.27;88.93;101012.47;10453273;28;20493;-60
2023/12/15 11:08:28;;;;;;;17.95;3.90;;;;;;;-6.26;89.40;101014.13;10444269;28;20048;-60
2023/12/15 11:13:59;;;;;;;13.02;3.65;;;;;;;-6.25;89.77;101015.78;10444230;28;20041;-61
2023/12/15 11:19:01;;;;;;;13.00;4.32;;;;;;;-6.16;90.19;101015.66;10438334;28;20041;-61
2023/12/15 11:24:05;;;;;;;14.25;4.53;;;;;;;-6.23;90.34;101021.84;10443244;28;20037;-60
2023/12/15 11:29:08;;;;;;;14.93;3.90;;;;;;;-6.18;91.03;101019.50;10437983;28;20041;-60
2023/12/15 11:34:37;;;;;;;24.52;4.97;;;;;;;-6.17;91.12;101010.50;10428672;28;20025;-60
2023/12/15 11:39:39;;;;;;;8.77;5.03;;;;;;;-6.16;91.44;101012.16;10442897;28;20044;-61
2023/12/15 11:44:44;;;;;;;19.15;4.45;;;;;;;-6.17;92.07;101013.16;10441860;28;20053;-60
2023/12/15 11:49:46;;;;;;;22.50;6.03;;;;;;;-6.19;92.45;101017.84;10440448;28;20524;-60
2023/12/15 11:54:49;;;;;;;33.80;5.90;;;;;;;-6.16;92.53;101010.31;10443782;28;20044;-60
2023/12/15 11:59:52;;;;;;;20.50;5.50;;;;;;;-6.08;93.16;101017.50;10443808;28;20091;-61
2023/12/15 12:04:55;;;;;;;14.77;5.18;;;;;;;-6.05;93.22;101016.38;10441707;28;20033;-61
2023/12/15 12:09:58;;;;;;;15.57;6.45;;;;;;;-6.04;93.46;101018.88;10434837;28;20033;-61
2023/12/15 12:15:09;;;;;;;19.65;5.68;;;;;;;-5.90;93.11;101009.34;10445878;28;20041;-61
2023/12/15 12:20:12;;;;;;;26.38;5.97;;;;;;;-5.97;93.31;101019.88;10427804;28;20433;-61
2023/12/15 12:25:16;;;;;;;17.90;5.93;;;;;;;-6.05;93.41;101022.56;10440846;28;20426;-61
2023/12/15 12:30:18;;;;;;;22.00;5.95;;;;;;;-6.00;93.78;101020.22;10444508;28;20044;-60
2023/12/15 12:35:21;;;;;;;16.33;5.65;;;;;;;-5.95;94.00;101025.88;10451275;28;20048;-60
2023/12/15 12:40:24;;;;;;;20.38;5.25;;;;;;;-5.93;94.58;101031.91;10432657;28;20033;-60
2023/12/15 12:45:26;;;;;;;18.38;5.65;;;;;;;-5.90;94.96;101044.09;10442415;28;20057;-59
2023/12/15 12:50:29;;;;;;;19.67;5.57;;;;;;;-5.88;95.26;101042.91;10442127;28;20132;-59
2023/12/15 12:55:31;;;;;;;24.48;5.35;;;;;;;-5.89;96.07;101046.59;10443931;28;20037;-60
2023/12/15 13:00:34;;;;;;;30.65;7.15;;;;;;;-5.82;95.89;101052.94;10432339;28;20033;-60
2023/12/15 13:05:36;;;;;;;18.20;5.47;;;;;;;-5.83;96.29;101051.28;10439238;28;20041;-60
2023/12/15 13:10:38;;;;;;;12.85;4.85;;;;;;;-5.84;96.48;101049.59;10441457;28;20504;-60
2023/12/15 13:15:41;;;;;;;33.00;7.60;;;;;;;-5.72;96.29;101058.16;10440764;28;20045;-59
2023/12/15 13:20:44;;;;;;;16.02;5.18;;;;;;;-5.85;96.74;101063.97;10430198;28;20029;-59
2023/12/15 13:25:46;;;;;;;9.30;4.35;;;;;;;-5.79;97.01;101062.47;10437633;28;20430;-60
2023/12/15 13:30:49;;;;;;;18.45;5.75;;;;;;;-5.74;97.39;101064.63;10434012;28;20037;-60
2023/12/15 13:35:52;;;;;;;23.05;5.50;;;;;;;-5.70;97.11;101060.66;10438205;28;20068;-60
2023/12/15 13:40:56;;;;;;;11.40;5.53;;;;;;;-5.68;97.37;101064.00;10441929;28;20025;-59
2023/12/15 13:45:59;;;;;;;12.30;3.97;;;;;;;-2.24;97.39;101050.16;10439182;28;20056;-60
2023/12/15 13:51:02;;;;;;;11.93;4.72;;;;;;;-0.11;83.28;101040.97;10431498;28;20037;-60
2023/12/15 13:56:04;;;;;;;9.30;3.75;;;;;;;0.18;75.55;101048.75;10421466;28;20041;-60
2023/12/15 14:01:06;;;;;;;9.98;4.70;;;;;;;-2.32;77.91;101067.19;10437805;28;20029;-59
2023/12/15 14:06:11;;;;;;;15.07;4.50;;;;;;;-3.93;82.57;101083.72;10441077;28;20052;-60
2023/12/15 14:11:13;;;;;;;9.48;4.40;;;;;;;-4.62;87.00;101075.44;10439091;28;20041;-59
2023/12/15 14:16:17;;;;;;;12.18;4.78;;;;;;;-4.91;89.53;101076.00;10469224;28;20036;-61
2023/12/15 14:21:19;;;;;;;17.80;4.70;;;;;;;-5.07;91.47;101074.19;10452129;28;20049;-60
2023/12/15 14:26:21;;;;;;;18.38;4.38;;;;;;;-5.14;93.21;101072.38;10437886;28;20045;-60
2023/12/15 14:31:24;;;;;;;15.10;4.15;;;;;;;-5.11;93.45;101077.38;10439982;28;20045;-60
2023/12/15 14:36:27;;;;;;;14.98;4.25;;;;;;;-5.10;94.42;101087.06;10439241;28;20520;-60
2023/12/15 14:41:30;;;;;;;8.77;3.38;;;;;;;-5.05;95.16;101088.22;10440235;28;20032;-60
2023/12/15 14:46:33;;;;;;;10.13;4.63;;;;;;;-5.10;95.84;101095.09;10436923;28;20050;-60
2023/12/15 14:51:37;;;;;;;11.70;4.35;;;;;;;-5.21;95.89;101096.25;10401791;28;20840;-60
2023/12/15 14:56:40;;;;;;;18.60;3.85;;;;;;;-5.32;96.33;101102.78;10420483;28;20093;-61
2023/12/15 15:01:43;;;;;;;15.65;4.40;;;;;;;-5.24;96.93;101100.09;10432209;28;20037;-61
2023/12/15 15:06:45;;;;;;;8.00;2.83;;;;;;;-5.28;97.55;101122.00;10442000;28;20140;-61
2023/12/15 15:11:48;;;;;;;8.68;3.50;;;;;;;-5.28;97.70;101119.34;10443730;28;20064;-60
2023/12/15 15:16:50;;;;;;;8.70;4.03;;;;;;;-5.28;98.25;101117.50;10450569;28;20045;-60
2023/12/15 15:21:53;;;;;;;7.18;4.18;;;;;;;-5.28;98.51;101112.16;10435864;28;20053;-62
2023/12/15 15:26:55;;;;;;;15.65;3.95;;;;;;;-5.28;98.79;101112.16;10442065;28;20082;-62
2023/12/15 15:31:57;;;;;;;17.55;4.10;;;;;;;-5.27;98.89;101116.50;10437192;28;20052;-62
2023/12/15 15:36:59;;;;;;;10.43;3.67;;;;;;;-5.28;98.79;101114.00;10436982;28;20034;-61
2023/12/15 15:42:03;;;;;;;11.00;3.13;;;;;;;-5.26;98.98;101107.47;10436974;28;20044;-60
2023/12/15 15:47:05;;;;;;;12.88;4.20;;;;;;;-5.19;99.26;101104.97;10441811;28;20064;-59
2023/12/15 15:52:08;;;;;;;11.07;4.32;;;;;;;-5.14;99.39;101102.63;10437335;28;20048;-61
2023/12/15 15:57:10;;;;;;;15.07;4.28;;;;;;;-5.12;99.56;101111.31;10437054;28;20033;-60
2023/12/15 16:02:12;;;;;;;8.95;3.17;;;;;;;-5.01;99.41;101107.47;10445043;28;20024;-59
2023/12/15 16:07:15;;;;;;;13.43;3.63;;;;;;;-4.94;99.55;101103.13;10439314;28;20037;-59
2023/12/15 16:12:17;;;;;;;6.63;3.15;;;;;;;-4.89;99.12;101095.41;10438975;28;20505;-60
2023/12/15 16:17:21;;;;;;;12.07;3.67;;;;;;;-4.86;99.35;101097.75;10423463;28;20536;-59
2023/12/15 16:22:24;;;;;;;10.35;3.13;;;;;;;-4.84;99.23;101095.75;10436335;28;20045;-61
2023/12/15 16:27:28;;;;;;;3.92;2.25;;;;;;;-4.90;98.97;101094.56;10441606;28;20053;-61
2023/12/15 16:32:31;;;;;;;7.75;3.67;;;;;;;-4.88;98.71;101097.06;10440398;28;20516;-61
2023/12/15 16:37:34;;;;;;;7.10;3.83;;;;;;;-4.87;98.96;101104.09;10438413;28;20037;-61
2023/12/15 16:42:44;;;;;;;7.85;3.25;;;;;;;-4.90;98.62;101102.59;10442365;28;20110;-61
2023/12/15 16:47:46;;;;;;;6.25;3.00;;;;;;;-4.87;98.69;101101.41;10447931;28;20045;-61
2023/12/15 16:52:49;;;;;;;11.40;3.17;;;;;;;-4.90;99.01;101097.25;10438561;28;20044;-60
2023/12/15 16:57:55;;;;;;;13.93;3.65;;;;;;;-4.91;98.78;101103.59;10442278;28;20132;-61
2023/12/15 17:02:57;;;;;;;15.82;3.38;;;;;;;-4.98;98.61;101107.97;10439122;28;20045;-61
2023/12/15 17:07:59;;;;;;;7.35;3.00;;;;;;;-5.04;98.73;101105.13;10441554;28;20033;-62
2023/12/15 17:13:02;;;;;;;8.85;3.33;;;;;;;-5.13;98.26;101092.75;10446496;28;20132;-61
2023/12/15 17:18:04;;;;;;;12.63;4.20;;;;;;;-5.20;98.42;101087.25;10446939;28;20051;-62
2023/12/15 17:23:06;;;;;;;5.63;3.10;;;;;;;-5.20;98.21;101087.25;10434998;28;20037;-64
2023/12/15 17:28:09;;;;;;;12.43;4.30;;;;;;;-5.22;98.31;101090.06;10425275;28;20063;-67
2023/12/15 17:33:11;;;;;;;20.65;8.15;;;;;;;-5.18;98.47;101094.09;10437275;28;20103;-67
2023/12/15 17:38:15;;;;;;;20.25;8.15;;;;;;;-5.22;98.10;101095.44;10440071;28;20033;-66
2023/12/15 17:43:19;;;;;;;24.35;8.00;;;;;;;-5.21;98.41;101101.59;10431875;28;20525;-66
2023/12/15 17:48:22;;;;;;;22.02;7.72;;;;;;;-5.18;97.44;101101.28;10446719;28;20068;-67
2023/12/15 17:53:25;;;;;;;20.83;6.97;;;;;;;-5.24;97.55;101096.59;10441206;28;20048;-67
2023/12/15 17:58:27;;;;;;;22.02;7.32;;;;;;;-5.22;97.24;101103.44;10443449;28;20033;-65
2023/12/15 18:03:30;;;;;;;12.30;5.60;;;;;;;-5.28;97.22;101101.44;10442140;28;20037;-66
2023/12/15 18:08:32;;;;;;;14.63;6.15;;;;;;;-5.30;97.33;101110.66;10436077;28;20064;-65
2023/12/15 18:13:35;;;;;;;16.67;5.55;;;;;;;-5.29;97.20;101101.63;10432865;28;20042;-66
2023/12/15 18:18:38;;;;;;;15.38;5.43;;;;;;;-5.23;97.38;101100.94;10438221;28;20052;-66
2023/12/15 18:23:41;;;;;;;23.25;7.43;;;;;;;-5.28;97.27;101096.09;10441476;28;20045;-66
2023/12/15 18:28:44;;;;;;;23.80;6.80;;;;;;;-5.29;96.87;101109.66;10438342;28;20029;-62
2023/12/15 18:33:47;;;;;;;20.33;6.60;;;;;;;-5.29;96.96;101123.03;10423137;28;20416;-64
2023/12/15 18:38:49;;;;;;;18.55;6.80;;;;;;;-5.31;96.53;101125.03;10430654;28;20036;-63
2023/12/15 18:43:52;;;;;;;22.60;6.90;;;;;;;-5.29;96.65;101133.72;10426374;28;20521;-62
2023/12/15 18:48:55;;;;;;;18.13;7.28;;;;;;;-5.37;96.58;101131.88;10439164;28;20049;-62
2023/12/15 18:53:58;;;;;;;21.05;8.15;;;;;;;-5.33;96.42;101127.03;10434722;28;20505;-61
2023/12/15 18:59:01;;;;;;;21.48;8.35;;;;;;;-5.37;96.61;101123.03;10431264;28;20037;-61
2023/12/15 19:04:04;;;;;;;21.35;8.30;;;;;;;-5.42;96.77;101128.84;10412387;28;20048;-66
2023/12/15 19:09:10;;;;;;;21.83;8.57;;;;;;;-5.43;96.60;101129.84;10429320;28;20045;-64
2023/12/15 19:14:14;;;;;;;24.38;8.73;;;;;;;-5.47;96.27;101124.00;10442688;28;20049;-66
2023/12/15 19:19:17;;;;;;;23.42;9.52;;;;;;;-5.51;96.27;101129.84;10441658;28;20032;-66
2023/12/15 19:24:22;;;;;;;29.92;10.90;;;;;;;-5.46;96.56;101127.50;10442589;28;20053;-64
2023/12/15 19:29:25;;;;;;;25.27;10.75;;;;;;;-5.41;96.98;101127.84;10440215;28;20045;-63
2023/12/15 19:34:29;;;;;;;23.05;10.10;;;;;;;-5.40;96.79;101126.00;10420567;28;20034;-64
2023/12/15 19:39:33;;;;;;;24.55;9.60;;;;;;;-5.33;96.37;101133.22;10443032;28;20042;-62
2023/12/15 19:44:36;;;;;;;24.50;10.60;;;;;;;-5.34;96.37;101141.41;10442230;28;20053;-63
2023/12/15 19:49:38;;;;;;;24.20;10.35;;;;;;;-5.33;96.14;101137.72;10442579;28;20042;-63
2023/12/15 19:54:41;;;;;;;23.42;9.88;;;;;;;-5.35;95.84;101134.41;10441614;28;20426;-62
2023/12/15 19:59:47;;;;;;;21.83;8.25;;;;;;;-5.35;96.09;101145.94;10448312;28;20512;-63
2023/12/15 20:04:51;;;;;;;18.85;7.30;;;;;;;-5.35;95.91;101148.59;10424489;28;20524;-62
2023/12/15 20:09:53;;;;;;;18.90;6.93;;;;;;;-5.42;95.57;101154.75;10434438;28;20420;-63
2023/12/15 20:14:57;;;;;;;19.52;6.47;;;;;;;-5.48;96.02;101170.47;10448494;28;20038;-63
2023/12/15 20:19:59;;;;;;;17.55;6.35;;;;;;;-5.48;96.36;101177.66;10447373;28;20034;-65
2023/12/15 20:25:05;;;;;;;14.32;6.65;;;;;;;-5.43;96.23;101180.66;10448092;28;20037;-63
2023/12/15 20:30:08;;;;;;;17.60;6.63;;;;;;;-5.52;96.17;101181.66;10443635;28;20124;-65
2023/12/15 20:35:11;;;;;;;16.52;5.25;;;;;;;-5.59;95.95;101181.44;10446216;28;20033;-65
2023/12/15 20:40:14;;;;;;;14.10;5.68;;;;;;;-5.63;96.05;101179.28;10448665;28;20399;-64
2023/12/15 20:45:16;;;;;;;14.10;6.60;;;;;;;-5.63;96.42;101195.31;10446395;28;20057;-66
2023/12/15 20:50:18;;;;;;;18.88;6.63;;;;;;;-5.64;96.09;101183.78;10441851;28;20048;-64
2023/12/15 20:55:21;;;;;;;18.02;6.45;;;;;;;-5.64;96.45;101185.63;10446987;28;20048;-64
2023/12/15 21:00:24;;;;;;;14.43;6.53;;;;;;;-5.70;96.16;101184.44;10447747;28;20037;-64
2023/12/15 21:05:26;;;;;;;15.68;6.47;;;;;;;-5.68;97.04;101179.78;10441348;28;20049;-64
2023/12/15 21:10:28;;;;;;;17.70;6.28;;;;;;;-5.63;96.83;101179.28;10426480;28;20037;-63
2023/12/15 21:15:31;;;;;;;16.50;6.72;;;;;;;-5.69;96.56;101195.97;10445921;28;20045;-63
2023/12/15 21:20:33;;;;;;;16.67;7.05;;;;;;;-5.68;96.64;101203.81;10444601;28;20035;-62
2023/12/15 21:25:36;;;;;;;17.30;6.15;;;;;;;-5.65;97.04;101206.19;10447934;28;20048;-63
2023/12/15 21:30:38;;;;;;;20.55;6.68;;;;;;;-5.60;96.99;101201.16;10441185;28;20045;-63
2023/12/15 21:35:40;;;;;;;16.10;6.18;;;;;;;-5.62;96.97;101199.66;10442068;28;20639;-65
2023/12/15 21:40:43;;;;;;;13.50;4.88;;;;;;;-5.65;96.90;101203.50;10433192;28;20041;-62
2023/12/15 21:45:45;;;;;;;15.32;6.10;;;;;;;-5.68;96.69;101208.34;10442369;28;20061;-63
2023/12/15 21:50:48;;;;;;;13.70;6.00;;;;;;;-5.66;97.17;101214.34;10442656;28;20033;-63
2023/12/15 21:55:51;;;;;;;16.23;5.65;;;;;;;-5.69;96.95;101204.81;10426321;28;20033;-63
2023/12/15 22:00:54;;;;;;;14.50;5.45;;;;;;;-5.69;97.23;101204.81;10434406;28;20052;-62
2023/12/15 22:05:56;;;;;;;11.88;5.15;;;;;;;-5.67;96.94;101210.84;10409982;28;20038;-62
2023/12/15 22:10:58;;;;;;;10.35;5.72;;;;;;;-5.72;97.24;101207.00;10436444;28;20037;-62
2023/12/15 22:16:01;;;;;;;17.02;5.57;;;;;;;-5.72;97.11;101213.19;10422635;28;20033;-62
2023/12/15 22:21:03;;;;;;;19.10;6.57;;;;;;;-5.63;97.02;101216.69;10441739;28;20042;-62
2023/12/15 22:26:12;;;;;;;13.65;5.47;;;;;;;-5.64;97.16;101223.06;10423855;28;20046;-62
2023/12/15 22:31:14;;;;;;;15.85;5.70;;;;;;;-5.63;96.57;101220.22;10426840;28;20034;-62
2023/12/15 22:36:21;;;;;;;14.40;6.20;;;;;;;-5.66;96.49;101230.41;10441624;28;20430;-62
2023/12/15 22:41:24;;;;;;;15.27;5.93;;;;;;;-5.75;96.22;101216.16;10421431;28;20395;-63
2023/12/15 22:46:26;;;;;;;14.15;6.05;;;;;;;-5.68;96.44;101217.19;10413202;28;20426;-62
2023/12/15 22:51:29;;;;;;;21.67;6.80;;;;;;;-5.72;96.46;101229.22;10432505;28;20065;-62
2023/12/15 22:56:31;;;;;;;13.35;6.47;;;;;;;-5.78;96.37;101227.16;10440818;28;20053;-62
2023/12/15 23:01:33;;;;;;;12.02;5.88;;;;;;;-5.72;96.59;101233.72;10409989;28;20049;-62